Aviation Digital Data Service (ADDS)

Output produced by TAFs form (0842 UTC 01 October 2016)
found at http://www.aviationweather.gov/adds/tafs/
 
KBJC 010835Z AUTO 00000KT 10SM CLR 13/04 A3018 RMK AO2
KBJC 010532Z 0106/0206 25006KT P6SM BKN080 BKN150 
     FM011500 VRB06KT P6SM SCT100 BKN180 
     FM012300 15006KT P6SM SCT100 SCT200 
     FM020400 25008KT P6SM SCT100 BKN200